sensor_id;sensor_type;location;lat;lon;timestamp;pressure;altitude;pressure_sealevel;temperature;humidity
58979;BME280;44763;50.464;30.612;2023-12-07T00:00:47;101255.73;;;-6.48;100.00
58979;BME280;44763;50.464;30.612;2023-12-07T00:02:49;101252.95;;;-6.48;100.00
58979;BME280;44763;50.464;30.612;2023-12-07T00:04:51;101261.70;;;-6.51;100.00
58979;BME280;44763;50.464;30.612;2023-12-07T00:06:54;101264.55;;;-6.57;100.00
58979;BME280;44763;50.464;30.612;2023-12-07T00:08:56;101264.25;;;-6.63;100.00
58979;BME280;44763;50.464;30.612;2023-12-07T00:10:58;101268.05;;;-6.68;100.00
58979;BME280;44763;50.464;30.612;2023-12-07T00:13:00;101270.80;;;-6.68;100.00
58979;BME280;44763;50.464;30.612;2023-12-07T00:15:04;101260.71;;;-6.71;100.00
58979;BME280;44763;50.464;30.612;2023-12-07T00:17:06;101274.10;;;-6.58;100.00
58979;BME280;44763;50.464;30.612;2023-12-07T00:19:08;101270.20;;;-6.56;100.00
58979;BME280;44763;50.464;30.612;2023-12-07T00:21:10;101275.64;;;-6.53;100.00
58979;BME280;44763;50.464;30.612;2023-12-07T00:23:12;101273.49;;;-6.56;100.00
58979;BME280;44763;50.464;30.612;2023-12-07T00:25:14;101272.26;;;-6.60;100.00
58979;BME280;44763;50.464;30.612;2023-12-07T00:27:18;101274.17;;;-6.66;100.00
58979;BME280;44763;50.464;30.612;2023-12-07T00:29:20;101271.19;;;-6.69;100.00
58979;BME280;44763;50.464;30.612;2023-12-07T00:31:22;101267.45;;;-6.71;100.00
58979;BME280;44763;50.464;30.612;2023-12-07T00:33:24;101276.77;;;-6.66;100.00
58979;BME280;44763;50.464;30.612;2023-12-07T00:35:27;101272.39;;;-6.63;100.00
58979;BME280;44763;50.464;30.612;2023-12-07T00:37:31;101272.97;;;-6.61;100.00
58979;BME280;44763;50.464;30.612;2023-12-07T00:39:33;101270.80;;;-6.58;100.00
58979;BME280;44763;50.464;30.612;2023-12-07T00:41:35;101267.23;;;-6.60;100.00
58979;BME280;44763;50.464;30.612;2023-12-07T00:43:37;101266.37;;;-6.65;100.00
58979;BME280;44763;50.464;30.612;2023-12-07T00:45:39;101266.75;;;-6.70;100.00
58979;BME280;44763;50.464;30.612;2023-12-07T00:47:41;101267.92;;;-6.74;100.00
58979;BME280;44763;50.464;30.612;2023-12-07T00:49:43;101265.61;;;-6.77;100.00
58979;BME280;44763;50.464;30.612;2023-12-07T00:51:45;101267.27;;;-6.76;100.00
58979;BME280;44763;50.464;30.612;2023-12-07T00:53:47;101269.96;;;-6.73;100.00
58979;BME280;44763;50.464;30.612;2023-12-07T00:55:50;101265.77;;;-6.72;100.00
58979;BME280;44763;50.464;30.612;2023-12-07T00:57:52;101266.95;;;-6.72;100.00
58979;BME280;44763;50.464;30.612;2023-12-07T00:59:54;101267.61;;;-6.70;100.00
58979;BME280;44763;50.464;30.612;2023-12-07T01:01:56;101262.16;;;-6.73;100.00
58979;BME280;44763;50.464;30.612;2023-12-07T01:03:58;101267.14;;;-6.77;100.00
58979;BME280;44763;50.464;30.612;2023-12-07T01:06:00;101265.91;;;-6.81;100.00
58979;BME280;44763;50.464;30.612;2023-12-07T01:08:02;101257.78;;;-6.86;100.00
58979;BME280;44763;50.464;30.612;2023-12-07T01:10:06;101256.88;;;-6.90;100.00
58979;BME280;44763;50.464;30.612;2023-12-07T01:12:08;101260.05;;;-6.86;100.00
58979;BME280;44763;50.464;30.612;2023-12-07T01:14:09;101250.71;;;-6.81;100.00
58979;BME280;44763;50.464;30.612;2023-12-07T01:16:12;101252.23;;;-6.80;100.00
58979;BME280;44763;50.464;30.612;2023-12-07T01:18:15;101248.48;;;-6.82;100.00
58979;BME280;44763;50.464;30.612;2023-12-07T01:20:17;101252.63;;;-6.82;100.00
58979;BME280;44763;50.464;30.612;2023-12-07T01:22:19;101247.56;;;-6.86;100.00
58979;BME280;44763;50.464;30.612;2023-12-07T01:24:22;101244.41;;;-6.89;100.00
58979;BME280;44763;50.464;30.612;2023-12-07T01:26:25;101248.70;;;-6.93;100.00
58979;BME280;44763;50.464;30.612;2023-12-07T01:28:27;101247.19;;;-6.94;100.00
58979;BME280;44763;50.464;30.612;2023-12-07T01:30:30;101244.40;;;-6.88;100.00
58979;BME280;44763;50.464;30.612;2023-12-07T01:32:32;101244.85;;;-6.81;100.00
58979;BME280;44763;50.464;30.612;2023-12-07T01:34:34;101249.17;;;-6.77;100.00
58979;BME280;44763;50.464;30.612;2023-12-07T01:36:36;101250.27;;;-6.74;100.00
58979;BME280;44763;50.464;30.612;2023-12-07T01:38:38;101248.81;;;-6.77;100.00
58979;BME280;44763;50.464;30.612;2023-12-07T01:40:40;101247.46;;;-6.82;100.00
58979;BME280;44763;50.464;30.612;2023-12-07T01:42:54;101247.75;;;-6.86;100.00
58979;BME280;44763;50.464;30.612;2023-12-07T01:44:56;101253.11;;;-6.91;100.00
58979;BME280;44763;50.464;30.612;2023-12-07T01:46:58;101247.74;;;-6.95;100.00
58979;BME280;44763;50.464;30.612;2023-12-07T01:49:02;101251.71;;;-6.95;100.00
58979;BME280;44763;50.464;30.612;2023-12-07T01:51:04;101247.15;;;-6.88;100.00
58979;BME280;44763;50.464;30.612;2023-12-07T01:53:08;101248.02;;;-6.83;100.00
58979;BME280;44763;50.464;30.612;2023-12-07T01:55:10;101249.60;;;-6.79;100.00
58979;BME280;44763;50.464;30.612;2023-12-07T01:57:14;101251.73;;;-6.76;100.00
58979;BME280;44763;50.464;30.612;2023-12-07T01:59:16;101251.62;;;-6.78;100.00
58979;BME280;44763;50.464;30.612;2023-12-07T02:01:18;101245.98;;;-6.84;100.00
58979;BME280;44763;50.464;30.612;2023-12-07T02:03:20;101247.74;;;-6.91;100.00
58979;BME280;44763;50.464;30.612;2023-12-07T02:05:24;101250.86;;;-6.95;100.00
58979;BME280;44763;50.464;30.612;2023-12-07T02:07:27;101253.95;;;-7.00;100.00
58979;BME280;44763;50.464;30.612;2023-12-07T02:09:30;101251.70;;;-6.99;100.00
58979;BME280;44763;50.464;30.612;2023-12-07T02:11:34;101252.73;;;-6.94;100.00
58979;BME280;44763;50.464;30.612;2023-12-07T02:13:40;101252.84;;;-6.88;100.00
58979;BME280;44763;50.464;30.612;2023-12-07T02:15:42;101253.48;;;-6.81;100.00
58979;BME280;44763;50.464;30.612;2023-12-07T02:22:10;101247.53;;;-6.89;100.00
58979;BME280;44763;50.464;30.612;2023-12-07T02:24:21;101249.77;;;-6.94;100.00
58979;BME280;44763;50.464;30.612;2023-12-07T02:26:31;101249.42;;;-6.99;100.00
58979;BME280;44763;50.464;30.612;2023-12-07T02:28:33;101252.05;;;-7.05;100.00
58979;BME280;44763;50.464;30.612;2023-12-07T02:30:35;101252.52;;;-7.03;100.00
58979;BME280;44763;50.464;30.612;2023-12-07T02:32:42;101249.05;;;-6.98;100.00
58979;BME280;44763;50.464;30.612;2023-12-07T02:34:45;101249.42;;;-6.94;100.00
58979;BME280;44763;50.464;30.612;2023-12-07T02:36:48;101243.30;;;-6.92;100.00
58979;BME280;44763;50.464;30.612;2023-12-07T02:38:56;101247.91;;;-6.95;100.00
58979;BME280;44763;50.464;30.612;2023-12-07T02:41:00;101247.45;;;-7.01;100.00
58979;BME280;44763;50.464;30.612;2023-12-07T02:43:04;101245.85;;;-7.05;100.00
58979;BME280;44763;50.464;30.612;2023-12-07T02:45:07;101243.91;;;-7.09;100.00
58979;BME280;44763;50.464;30.612;2023-12-07T02:47:09;101248.69;;;-7.12;100.00
58979;BME280;44763;50.464;30.612;2023-12-07T02:49:11;101250.04;;;-7.17;100.00
58979;BME280;44763;50.464;30.612;2023-12-07T02:51:13;101244.75;;;-7.14;100.00
58979;BME280;44763;50.464;30.612;2023-12-07T02:53:15;101244.34;;;-7.06;100.00
58979;BME280;44763;50.464;30.612;2023-12-07T02:55:17;101245.07;;;-7.02;100.00
58979;BME280;44763;50.464;30.612;2023-12-07T02:57:19;101245.57;;;-7.02;100.00
58979;BME280;44763;50.464;30.612;2023-12-07T02:59:23;101243.09;;;-7.05;100.00
58979;BME280;44763;50.464;30.612;2023-12-07T03:01:25;101231.33;;;-7.20;100.00
58979;BME280;44763;50.464;30.612;2023-12-07T03:03:27;101249.85;;;-7.16;100.00
58979;BME280;44763;50.464;30.612;2023-12-07T03:05:29;101244.70;;;-7.22;100.00
58979;BME280;44763;50.464;30.612;2023-12-07T03:07:35;101246.37;;;-7.26;100.00
58979;BME280;44763;50.464;30.612;2023-12-07T03:09:57;101246.80;;;-7.23;100.00
58979;BME280;44763;50.464;30.612;2023-12-07T03:11:59;101249.55;;;-7.17;100.00
58979;BME280;44763;50.464;30.612;2023-12-07T03:14:03;101251.75;;;-7.16;100.00
58979;BME280;44763;50.464;30.612;2023-12-07T03:16:09;101249.73;;;-7.17;100.00
58979;BME280;44763;50.464;30.612;2023-12-07T03:18:12;101254.16;;;-7.21;100.00
58979;BME280;44763;50.464;30.612;2023-12-07T03:20:16;101259.04;;;-7.27;100.00
58979;BME280;44763;50.464;30.612;2023-12-07T03:22:18;101260.96;;;-7.34;100.00
58979;BME280;44763;50.464;30.612;2023-12-07T03:24:21;101263.87;;;-7.38;100.00
58979;BME280;44763;50.464;30.612;2023-12-07T03:26:22;101264.17;;;-7.41;100.00
58979;BME280;44763;50.464;30.612;2023-12-07T03:28:24;101264.69;;;-7.41;100.00
58979;BME280;44763;50.464;30.612;2023-12-07T03:30:27;101261.71;;;-7.35;100.00
58979;BME280;44763;50.464;30.612;2023-12-07T03:32:28;101259.12;;;-7.30;100.00
58979;BME280;44763;50.464;30.612;2023-12-07T03:34:32;101258.16;;;-7.27;100.00
58979;BME280;44763;50.464;30.612;2023-12-07T03:36:36;101263.62;;;-7.30;100.00
58979;BME280;44763;50.464;30.612;2023-12-07T03:38:38;101262.30;;;-7.37;100.00
58979;BME280;44763;50.464;30.612;2023-12-07T03:40:40;101268.11;;;-7.41;100.00
58979;BME280;44763;50.464;30.612;2023-12-07T03:42:42;101265.41;;;-7.43;100.00
58979;BME280;44763;50.464;30.612;2023-12-07T03:44:57;101271.84;;;-7.44;100.00
58979;BME280;44763;50.464;30.612;2023-12-07T03:46:59;101270.79;;;-7.43;100.00
58979;BME280;44763;50.464;30.612;2023-12-07T03:49:00;101271.13;;;-7.38;100.00
58979;BME280;44763;50.464;30.612;2023-12-07T03:51:03;101266.73;;;-7.30;100.00
58979;BME280;44763;50.464;30.612;2023-12-07T03:53:05;101265.15;;;-7.24;100.00
58979;BME280;44763;50.464;30.612;2023-12-07T03:55:08;101270.14;;;-7.24;100.00
58979;BME280;44763;50.464;30.612;2023-12-07T03:57:13;101267.54;;;-7.29;100.00
58979;BME280;44763;50.464;30.612;2023-12-07T03:59:15;101270.80;;;-7.33;100.00
58979;BME280;44763;50.464;30.612;2023-12-07T04:01:27;101268.53;;;-7.38;100.00
58979;BME280;44763;50.464;30.612;2023-12-07T04:03:29;101262.80;;;-7.42;100.00
58979;BME280;44763;50.464;30.612;2023-12-07T04:05:32;101263.36;;;-7.49;100.00
58979;BME280;44763;50.464;30.612;2023-12-07T04:07:34;101266.42;;;-7.52;100.00
58979;BME280;44763;50.464;30.612;2023-12-07T04:09:38;101266.29;;;-7.53;100.00
58979;BME280;44763;50.464;30.612;2023-12-07T04:11:40;101269.55;;;-7.48;100.00
58979;BME280;44763;50.464;30.612;2023-12-07T04:13:44;101266.55;;;-7.45;100.00
58979;BME280;44763;50.464;30.612;2023-12-07T04:15:46;101266.20;;;-7.46;100.00
58979;BME280;44763;50.464;30.612;2023-12-07T04:17:49;101265.30;;;-7.50;100.00
58979;BME280;44763;50.464;30.612;2023-12-07T04:19:51;101265.27;;;-7.54;100.00
58979;BME280;44763;50.464;30.612;2023-12-07T04:21:54;101266.93;;;-7.57;100.00
58979;BME280;44763;50.464;30.612;2023-12-07T04:24:38;101265.49;;;-7.66;100.00
58979;BME280;44763;50.464;30.612;2023-12-07T04:26:40;101263.85;;;-7.70;100.00
58979;BME280;44763;50.464;30.612;2023-12-07T04:28:42;101264.52;;;-7.69;100.00
58979;BME280;44763;50.464;30.612;2023-12-07T04:30:44;101261.83;;;-7.65;100.00
58979;BME280;44763;50.464;30.612;2023-12-07T04:32:46;101265.89;;;-7.63;100.00
58979;BME280;44763;50.464;30.612;2023-12-07T04:34:49;101262.16;;;-7.59;100.00
58979;BME280;44763;50.464;30.612;2023-12-07T04:36:51;101260.15;;;-7.56;100.00
58979;BME280;44763;50.464;30.612;2023-12-07T04:38:53;101258.89;;;-7.59;100.00
58979;BME280;44763;50.464;30.612;2023-12-07T04:40:55;101263.62;;;-7.67;100.00
58979;BME280;44763;50.464;30.612;2023-12-07T04:42:59;101260.04;;;-7.74;100.00
58979;BME280;44763;50.464;30.612;2023-12-07T04:45:01;101262.80;;;-7.79;100.00
58979;BME280;44763;50.464;30.612;2023-12-07T04:47:03;101262.44;;;-7.84;100.00
58979;BME280;44763;50.464;30.612;2023-12-07T04:49:07;101261.44;;;-7.86;100.00
58979;BME280;44763;50.464;30.612;2023-12-07T04:51:09;101263.98;;;-7.85;100.00
58979;BME280;44763;50.464;30.612;2023-12-07T04:53:12;101265.19;;;-7.84;100.00
58979;BME280;44763;50.464;30.612;2023-12-07T04:55:14;101260.66;;;-7.83;100.00
58979;BME280;44763;50.464;30.612;2023-12-07T04:57:17;101253.52;;;-7.80;100.00
58979;BME280;44763;50.464;30.612;2023-12-07T04:59:19;101256.25;;;-7.80;100.00
58979;BME280;44763;50.464;30.612;2023-12-07T05:01:21;101261.37;;;-7.83;100.00
58979;BME280;44763;50.464;30.612;2023-12-07T05:03:23;101261.35;;;-7.88;100.00
58979;BME280;44763;50.464;30.612;2023-12-07T05:05:25;101265.14;;;-7.94;100.00
58979;BME280;44763;50.464;30.612;2023-12-07T05:07:30;101265.13;;;-7.99;100.00
58979;BME280;44763;50.464;30.612;2023-12-07T05:09:32;101270.47;;;-8.05;100.00
58979;BME280;44763;50.464;30.612;2023-12-07T05:11:33;101270.08;;;-8.03;100.00
58979;BME280;44763;50.464;30.612;2023-12-07T05:13:36;101268.85;;;-7.96;100.00
58979;BME280;44763;50.464;30.612;2023-12-07T05:15:38;101264.48;;;-7.95;100.00
58979;BME280;44763;50.464;30.612;2023-12-07T05:17:40;101265.12;;;-7.93;100.00
58979;BME280;44763;50.464;30.612;2023-12-07T05:19:44;101275.06;;;-7.97;100.00
58979;BME280;44763;50.464;30.612;2023-12-07T05:21:46;101275.60;;;-8.04;100.00
58979;BME280;44763;50.464;30.612;2023-12-07T05:23:49;101277.32;;;-8.09;100.00
58979;BME280;44763;50.464;30.612;2023-12-07T05:25:50;101283.69;;;-8.14;100.00
58979;BME280;44763;50.464;30.612;2023-12-07T05:27:53;101283.98;;;-8.12;100.00
58979;BME280;44763;50.464;30.612;2023-12-07T05:29:55;101283.67;;;-8.08;100.00
58979;BME280;44763;50.464;30.612;2023-12-07T05:31:58;101283.45;;;-8.06;100.00
58979;BME280;44763;50.464;30.612;2023-12-07T05:33:59;101279.48;;;-8.06;100.00
58979;BME280;44763;50.464;30.612;2023-12-07T05:36:03;101276.61;;;-8.08;100.00
58979;BME280;44763;50.464;30.612;2023-12-07T05:38:05;101275.54;;;-8.12;100.00
58979;BME280;44763;50.464;30.612;2023-12-07T05:40:08;101262.16;;;-8.26;100.00
58979;BME280;44763;50.464;30.612;2023-12-07T05:42:11;101274.55;;;-8.20;100.00
58979;BME280;44763;50.464;30.612;2023-12-07T05:44:15;101271.27;;;-8.20;100.00
58979;BME280;44763;50.464;30.612;2023-12-07T05:46:23;101266.69;;;-8.16;100.00
58979;BME280;44763;50.464;30.612;2023-12-07T05:48:25;101274.08;;;-8.16;100.00
58979;BME280;44763;50.464;30.612;2023-12-07T05:50:30;101259.88;;;-8.25;100.00
58979;BME280;44763;50.464;30.612;2023-12-07T05:52:32;101270.59;;;-8.15;100.00
58979;BME280;44763;50.464;30.612;2023-12-07T05:54:34;101256.29;;;-8.20;100.00
58979;BME280;44763;50.464;30.612;2023-12-07T05:56:36;101266.97;;;-8.14;100.00
58979;BME280;44763;50.464;30.612;2023-12-07T05:58:38;101264.02;;;-8.19;100.00
58979;BME280;44763;50.464;30.612;2023-12-07T06:00:40;101267.07;;;-8.24;100.00
58979;BME280;44763;50.464;30.612;2023-12-07T06:02:42;101270.61;;;-8.27;100.00
58979;BME280;44763;50.464;30.612;2023-12-07T06:04:45;101269.73;;;-8.26;100.00
58979;BME280;44763;50.464;30.612;2023-12-07T06:06:46;101265.58;;;-8.20;100.00
58979;BME280;44763;50.464;30.612;2023-12-07T06:08:49;101266.43;;;-8.14;100.00
58979;BME280;44763;50.464;30.612;2023-12-07T06:10:51;101270.85;;;-8.11;100.00
58979;BME280;44763;50.464;30.612;2023-12-07T06:12:53;101274.20;;;-8.14;100.00
58979;BME280;44763;50.464;30.612;2023-12-07T06:14:56;101265.70;;;-8.18;100.00
58979;BME280;44763;50.464;30.612;2023-12-07T06:17:00;101260.62;;;-8.22;100.00
58979;BME280;44763;50.464;30.612;2023-12-07T06:19:03;101263.08;;;-8.23;100.00
58979;BME280;44763;50.464;30.612;2023-12-07T06:21:05;101264.14;;;-8.24;100.00
58979;BME280;44763;50.464;30.612;2023-12-07T06:23:08;101263.83;;;-8.18;100.00
58979;BME280;44763;50.464;30.612;2023-12-07T06:25:14;101275.08;;;-8.03;100.00
58979;BME280;44763;50.464;30.612;2023-12-07T06:27:16;101276.13;;;-7.92;100.00
58979;BME280;44763;50.464;30.612;2023-12-07T06:29:20;101278.65;;;-7.84;100.00
58979;BME280;44763;50.464;30.612;2023-12-07T06:31:21;101280.96;;;-7.75;100.00
58979;BME280;44763;50.464;30.612;2023-12-07T06:33:24;101279.66;;;-7.67;100.00
58979;BME280;44763;50.464;30.612;2023-12-07T06:35:26;101278.47;;;-7.56;100.00
58979;BME280;44763;50.464;30.612;2023-12-07T06:37:29;101274.31;;;-7.45;100.00
58979;BME280;44763;50.464;30.612;2023-12-07T06:39:31;101265.52;;;-7.35;100.00
58979;BME280;44763;50.464;30.612;2023-12-07T06:41:32;101265.98;;;-7.28;100.00
58979;BME280;44763;50.464;30.612;2023-12-07T06:43:35;101264.11;;;-7.19;100.00
58979;BME280;44763;50.464;30.612;2023-12-07T06:45:37;101264.46;;;-7.09;100.00
58979;BME280;44763;50.464;30.612;2023-12-07T06:47:38;101263.30;;;-7.00;100.00
58979;BME280;44763;50.464;30.612;2023-12-07T06:49:41;101262.89;;;-7.03;100.00
58979;BME280;44763;50.464;30.612;2023-12-07T06:51:53;101268.35;;;-7.12;100.00
58979;BME280;44763;50.464;30.612;2023-12-07T06:53:55;101265.30;;;-7.18;100.00
58979;BME280;44763;50.464;30.612;2023-12-07T06:55:57;101263.69;;;-7.27;100.00
58979;BME280;44763;50.464;30.612;2023-12-07T06:58:00;101263.79;;;-7.35;100.00
58979;BME280;44763;50.464;30.612;2023-12-07T07:00:03;101259.00;;;-7.42;100.00
58979;BME280;44763;50.464;30.612;2023-12-07T07:02:09;101262.85;;;-7.44;100.00
58979;BME280;44763;50.464;30.612;2023-12-07T07:04:11;101257.23;;;-7.46;100.00
58979;BME280;44763;50.464;30.612;2023-12-07T07:06:15;101260.41;;;-7.48;100.00
58979;BME280;44763;50.464;30.612;2023-12-07T07:08:17;101257.86;;;-7.50;100.00
58979;BME280;44763;50.464;30.612;2023-12-07T07:10:19;101254.02;;;-7.43;100.00
58979;BME280;44763;50.464;30.612;2023-12-07T07:12:21;101257.84;;;-7.33;100.00
58979;BME280;44763;50.464;30.612;2023-12-07T07:14:23;101258.10;;;-7.25;100.00
58979;BME280;44763;50.464;30.612;2023-12-07T07:16:25;101260.08;;;-7.17;100.00
58979;BME280;44763;50.464;30.612;2023-12-07T07:18:27;101269.73;;;-7.07;100.00
58979;BME280;44763;50.464;30.612;2023-12-07T07:20:30;101261.09;;;-6.96;100.00
58979;BME280;44763;50.464;30.612;2023-12-07T07:22:33;101259.92;;;-6.88;100.00
58979;BME280;44763;50.464;30.612;2023-12-07T07:24:36;101261.69;;;-6.79;100.00
58979;BME280;44763;50.464;30.612;2023-12-07T07:26:41;101260.96;;;-6.68;100.00
58979;BME280;44763;50.464;30.612;2023-12-07T07:28:44;101249.40;;;-6.69;100.00
58979;BME280;44763;50.464;30.612;2023-12-07T07:30:46;101263.15;;;-6.52;100.00
58979;BME280;44763;50.464;30.612;2023-12-07T07:32:48;101261.86;;;-6.45;100.00
58979;BME280;44763;50.464;30.612;2023-12-07T07:34:50;101264.59;;;-6.39;100.00
58979;BME280;44763;50.464;30.612;2023-12-07T07:36:52;101266.89;;;-6.32;100.00
58979;BME280;44763;50.464;30.612;2023-12-07T07:38:55;101265.75;;;-6.25;100.00
58979;BME280;44763;50.464;30.612;2023-12-07T07:41:00;101267.96;;;-6.23;100.00
58979;BME280;44763;50.464;30.612;2023-12-07T07:43:02;101271.06;;;-6.28;100.00
58979;BME280;44763;50.464;30.612;2023-12-07T07:45:05;101265.75;;;-6.34;100.00
58979;BME280;44763;50.464;30.612;2023-12-07T07:47:07;101263.98;;;-6.37;100.00
58979;BME280;44763;50.464;30.612;2023-12-07T07:49:10;101267.35;;;-6.44;100.00
58979;BME280;44763;50.464;30.612;2023-12-07T07:51:12;101264.59;;;-6.49;100.00
58979;BME280;44763;50.464;30.612;2023-12-07T07:53:16;101267.33;;;-6.53;100.00
58979;BME280;44763;50.464;30.612;2023-12-07T07:55:18;101266.98;;;-6.58;100.00
58979;BME280;44763;50.464;30.612;2023-12-07T07:57:20;101264.14;;;-6.60;100.00
58979;BME280;44763;50.464;30.612;2023-12-07T07:59:22;101250.41;;;-6.73;100.00
58979;BME280;44763;50.464;30.612;2023-12-07T08:01:24;101268.92;;;-6.64;100.00
58979;BME280;44763;50.464;30.612;2023-12-07T08:03:27;101279.39;;;-6.61;100.00
58979;BME280;44763;50.464;30.612;2023-12-07T08:05:29;101285.42;;;-6.61;100.00
58979;BME280;44763;50.464;30.612;2023-12-07T08:07:32;101294.34;;;-6.59;100.00
58979;BME280;44763;50.464;30.612;2023-12-07T08:09:34;101289.33;;;-6.59;100.00
58979;BME280;44763;50.464;30.612;2023-12-07T08:11:38;101288.99;;;-6.59;100.00
58979;BME280;44763;50.464;30.612;2023-12-07T08:13:40;101296.48;;;-6.60;100.00
58979;BME280;44763;50.464;30.612;2023-12-07T08:15:42;101301.23;;;-6.63;100.00
58979;BME280;44763;50.464;30.612;2023-12-07T08:17:44;101300.23;;;-6.64;100.00
58979;BME280;44763;50.464;30.612;2023-12-07T08:19:46;101301.70;;;-6.67;100.00
58979;BME280;44763;50.464;30.612;2023-12-07T08:21:50;101297.54;;;-6.66;100.00
58979;BME280;44763;50.464;30.612;2023-12-07T08:23:53;101289.91;;;-6.65;100.00
58979;BME280;44763;50.464;30.612;2023-12-07T08:25:55;101306.98;;;-6.49;100.00
58979;BME280;44763;50.464;30.612;2023-12-07T08:27:59;101305.55;;;-6.43;100.00
58979;BME280;44763;50.464;30.612;2023-12-07T08:30:01;101302.09;;;-6.38;100.00
58979;BME280;44763;50.464;30.612;2023-12-07T08:32:05;101310.56;;;-6.38;100.00
58979;BME280;44763;50.464;30.612;2023-12-07T08:34:07;101305.89;;;-6.39;100.00
58979;BME280;44763;50.464;30.612;2023-12-07T08:36:10;101309.36;;;-6.38;100.00
58979;BME280;44763;50.464;30.612;2023-12-07T08:38:12;101316.23;;;-6.38;100.00
58979;BME280;44763;50.464;30.612;2023-12-07T08:40:14;101317.73;;;-6.36;100.00
58979;BME280;44763;50.464;30.612;2023-12-07T08:42:19;101316.89;;;-6.37;100.00
58979;BME280;44763;50.464;30.612;2023-12-07T08:44:21;101321.84;;;-6.39;100.00
58979;BME280;44763;50.464;30.612;2023-12-07T08:46:24;101322.63;;;-6.38;100.00
58979;BME280;44763;50.464;30.612;2023-12-07T08:48:27;101322.14;;;-6.29;100.00
58979;BME280;44763;50.464;30.612;2023-12-07T08:50:29;101312.72;;;-6.22;100.00
58979;BME280;44763;50.464;30.612;2023-12-07T08:52:31;101314.54;;;-6.19;100.00
58979;BME280;44763;50.464;30.612;2023-12-07T08:54:47;101308.02;;;-6.21;100.00
58979;BME280;44763;50.464;30.612;2023-12-07T08:56:51;101309.64;;;-6.23;100.00
58979;BME280;44763;50.464;30.612;2023-12-07T08:58:53;101307.64;;;-6.24;100.00
58979;BME280;44763;50.464;30.612;2023-12-07T09:00:55;101311.69;;;-6.27;100.00
58979;BME280;44763;50.464;30.612;2023-12-07T09:02:57;101309.33;;;-6.28;100.00
58979;BME280;44763;50.464;30.612;2023-12-07T09:05:00;101304.84;;;-6.29;100.00
58979;BME280;44763;50.464;30.612;2023-12-07T09:07:02;101302.23;;;-6.29;100.00
58979;BME280;44763;50.464;30.612;2023-12-07T09:09:04;101305.70;;;-6.29;100.00
58979;BME280;44763;50.464;30.612;2023-12-07T09:11:06;101301.86;;;-6.23;100.00
58979;BME280;44763;50.464;30.612;2023-12-07T09:13:08;101295.87;;;-6.15;100.00
58979;BME280;44763;50.464;30.612;2023-12-07T09:15:10;101291.66;;;-6.10;100.00
58979;BME280;44763;50.464;30.612;2023-12-07T09:17:13;101289.31;;;-6.07;100.00
58979;BME280;44763;50.464;30.612;2023-12-07T09:19:14;101291.29;;;-6.09;100.00
58979;BME280;44763;50.464;30.612;2023-12-07T09:21:16;101290.16;;;-6.11;100.00
58979;BME280;44763;50.464;30.612;2023-12-07T09:23:18;101290.56;;;-6.13;100.00
58979;BME280;44763;50.464;30.612;2023-12-07T09:25:21;101292.28;;;-6.17;100.00
58979;BME280;44763;50.464;30.612;2023-12-07T09:27:23;101287.84;;;-6.23;100.00
58979;BME280;44763;50.464;30.612;2023-12-07T09:29:25;101280.71;;;-6.27;100.00
58979;BME280;44763;50.464;30.612;2023-12-07T09:31:27;101280.32;;;-6.25;100.00
58979;BME280;44763;50.464;30.612;2023-12-07T09:33:29;101275.14;;;-6.16;100.00
58979;BME280;44763;50.464;30.612;2023-12-07T09:35:31;101272.30;;;-6.10;100.00
58979;BME280;44763;50.464;30.612;2023-12-07T09:37:36;101276.80;;;-6.01;100.00
58979;BME280;44763;50.464;30.612;2023-12-07T09:39:38;101267.07;;;-5.95;100.00
58979;BME280;44763;50.464;30.612;2023-12-07T09:41:41;101261.10;;;-6.02;100.00
58979;BME280;44763;50.464;30.612;2023-12-07T09:43:45;101269.71;;;-6.05;100.00
58979;BME280;44763;50.464;30.612;2023-12-07T09:45:48;101272.63;;;-6.10;100.00
58979;BME280;44763;50.464;30.612;2023-12-07T09:47:53;101273.50;;;-6.14;100.00
58979;BME280;44763;50.464;30.612;2023-12-07T09:49:55;101270.91;;;-6.19;100.00
58979;BME280;44763;50.464;30.612;2023-12-07T09:51:59;101251.13;;;-6.31;100.00
58979;BME280;44763;50.464;30.612;2023-12-07T09:54:02;101266.18;;;-6.17;100.00
58979;BME280;44763;50.464;30.612;2023-12-07T09:56:06;101262.81;;;-6.11;100.00
58979;BME280;44763;50.464;30.612;2023-12-07T09:58:08;101261.59;;;-6.06;100.00
58979;BME280;44763;50.464;30.612;2023-12-07T10:00:11;101260.59;;;-6.02;100.00
58979;BME280;44763;50.464;30.612;2023-12-07T10:02:16;101253.63;;;-6.06;100.00
58979;BME280;44763;50.464;30.612;2023-12-07T10:04:22;101251.19;;;-6.15;100.00
58979;BME280;44763;50.464;30.612;2023-12-07T10:06:42;101251.16;;;-6.22;100.00
58979;BME280;44763;50.464;30.612;2023-12-07T10:08:45;101247.05;;;-6.28;100.00
58979;BME280;44763;50.464;30.612;2023-12-07T10:11:01;101237.86;;;-6.37;100.00
58979;BME280;44763;50.464;30.612;2023-12-07T10:13:04;101247.84;;;-6.27;100.00
58979;BME280;44763;50.464;30.612;2023-12-07T10:15:13;101245.48;;;-6.19;100.00
58979;BME280;44763;50.464;30.612;2023-12-07T10:17:15;101246.40;;;-6.12;100.00
58979;BME280;44763;50.464;30.612;2023-12-07T10:19:17;101243.39;;;-6.05;100.00
58979;BME280;44763;50.464;30.612;2023-12-07T10:21:33;101244.89;;;-6.03;100.00
58979;BME280;44763;50.464;30.612;2023-12-07T10:23:36;101242.98;;;-6.08;100.00
58979;BME280;44763;50.464;30.612;2023-12-07T10:25:40;101245.39;;;-6.12;100.00
58979;BME280;44763;50.464;30.612;2023-12-07T10:27:44;101240.44;;;-6.14;100.00
58979;BME280;44763;50.464;30.612;2023-12-07T10:29:46;101232.89;;;-6.15;100.00
58979;BME280;44763;50.464;30.612;2023-12-07T10:31:48;101238.16;;;-6.13;100.00